sensor_id;sensor_type;location;lat;lon;timestamp;pressure;altitude;pressure_sealevel;temperature;humidity
68107;BME280;54892;47.488;19.026;2023-03-20T00:02:35;100024.34;;;10.10;51.41
68107;BME280;54892;47.488;19.026;2023-03-20T00:05:39;100012.16;;;10.04;51.85
68107;BME280;54892;47.488;19.026;2023-03-20T00:08:41;100016.87;;;10.02;52.01
68107;BME280;54892;47.488;19.026;2023-03-20T00:11:47;100019.50;;;10.02;52.26
68107;BME280;54892;47.488;19.026;2023-03-20T00:14:52;100012.34;;;9.97;52.73
68107;BME280;54892;47.488;19.026;2023-03-20T00:17:55;100018.69;;;9.96;52.52
68107;BME280;54892;47.488;19.026;2023-03-20T00:20:58;100017.91;;;9.96;52.33
68107;BME280;54892;47.488;19.026;2023-03-20T00:24:01;100018.69;;;9.96;52.53
68107;BME280;54892;47.488;19.026;2023-03-20T00:27:22;100017.28;;;9.88;53.11
68107;BME280;54892;47.488;19.026;2023-03-20T00:30:28;100015.62;;;9.82;52.85
68107;BME280;54892;47.488;19.026;2023-03-20T00:33:31;100011.72;;;9.85;52.96
68107;BME280;54892;47.488;19.026;2023-03-20T00:36:35;100018.81;;;9.84;52.96
68107;BME280;54892;47.488;19.026;2023-03-20T00:39:38;100019.84;;;9.78;53.23
68107;BME280;54892;47.488;19.026;2023-03-20T00:42:42;100020.28;;;9.70;54.22
68107;BME280;54892;47.488;19.026;2023-03-20T00:45:47;100017.41;;;9.71;54.15
68107;BME280;54892;47.488;19.026;2023-03-20T00:48:50;100019.69;;;9.63;54.22
68107;BME280;54892;47.488;19.026;2023-03-20T00:51:54;100017.53;;;9.59;54.36
68107;BME280;54892;47.488;19.026;2023-03-20T00:54:58;100010.13;;;9.56;54.70
68107;BME280;54892;47.488;19.026;2023-03-20T00:58:01;100009.53;;;9.49;55.28
68107;BME280;54892;47.488;19.026;2023-03-20T01:01:06;100006.56;;;9.45;55.51
68107;BME280;54892;47.488;19.026;2023-03-20T01:04:10;100016.25;;;9.40;55.66
68107;BME280;54892;47.488;19.026;2023-03-20T01:07:14;100009.69;;;9.42;55.59
68107;BME280;54892;47.488;19.026;2023-03-20T01:10:17;100004.44;;;9.42;55.46
68107;BME280;54892;47.488;19.026;2023-03-20T01:13:21;100012.88;;;9.44;54.32
68107;BME280;54892;47.488;19.026;2023-03-20T01:16:26;100013.72;;;9.50;53.75
68107;BME280;54892;47.488;19.026;2023-03-20T01:19:29;100017.00;;;9.57;53.53
68107;BME280;54892;47.488;19.026;2023-03-20T01:22:33;100017.78;;;9.58;53.51
68107;BME280;54892;47.488;19.026;2023-03-20T01:25:37;100013.81;;;9.55;53.56
68107;BME280;54892;47.488;19.026;2023-03-20T01:28:40;100015.66;;;9.55;53.71
68107;BME280;54892;47.488;19.026;2023-03-20T01:31:45;100004.28;;;9.49;53.90
68107;BME280;54892;47.488;19.026;2023-03-20T01:34:48;99999.22;;;9.48;53.89
68107;BME280;54892;47.488;19.026;2023-03-20T01:37:52;99996.66;;;9.53;53.78
68107;BME280;54892;47.488;19.026;2023-03-20T01:40:56;99993.19;;;9.47;54.13
68107;BME280;54892;47.488;19.026;2023-03-20T01:44:06;99991.44;;;9.36;54.32
68107;BME280;54892;47.488;19.026;2023-03-20T01:47:18;99984.06;;;9.33;54.36
68107;BME280;54892;47.488;19.026;2023-03-20T01:50:23;99979.22;;;9.24;54.53
68107;BME280;54892;47.488;19.026;2023-03-20T01:53:27;99988.28;;;9.34;54.18
68107;BME280;54892;47.488;19.026;2023-03-20T01:56:31;99988.28;;;9.34;54.00
68107;BME280;54892;47.488;19.026;2023-03-20T01:59:36;99984.41;;;9.19;54.21
68107;BME280;54892;47.488;19.026;2023-03-20T02:02:43;99987.59;;;9.21;54.36
68107;BME280;54892;47.488;19.026;2023-03-20T02:05:47;99983.94;;;9.22;53.96
68107;BME280;54892;47.488;19.026;2023-03-20T02:08:51;99986.94;;;9.31;53.23
68107;BME280;54892;47.488;19.026;2023-03-20T02:11:54;99982.16;;;9.28;53.07
68107;BME280;54892;47.488;19.026;2023-03-20T02:14:58;99981.97;;;9.35;53.09
68107;BME280;54892;47.488;19.026;2023-03-20T02:18:02;99981.38;;;9.27;53.53
68107;BME280;54892;47.488;19.026;2023-03-20T02:28:16;99970.22;;;9.20;54.28
68107;BME280;54892;47.488;19.026;2023-03-20T02:38:09;99967.22;;;9.11;54.54
68107;BME280;54892;47.488;19.026;2023-03-20T02:41:20;99968.69;;;9.02;54.83
68107;BME280;54892;47.488;19.026;2023-03-20T02:44:25;99966.81;;;8.97;54.70
68107;BME280;54892;47.488;19.026;2023-03-20T02:47:34;99955.91;;;9.11;54.16
68107;BME280;54892;47.488;19.026;2023-03-20T02:50:40;99947.63;;;9.02;54.24
68107;BME280;54892;47.488;19.026;2023-03-20T02:53:50;99947.03;;;8.95;54.00
68107;BME280;54892;47.488;19.026;2023-03-20T02:56:57;99944.09;;;8.91;54.05
68107;BME280;54892;47.488;19.026;2023-03-20T03:00:03;99950.91;;;8.87;53.89
68107;BME280;54892;47.488;19.026;2023-03-20T03:03:10;99951.97;;;8.91;53.47
68107;BME280;54892;47.488;19.026;2023-03-20T03:06:16;99946.22;;;8.94;53.14
68107;BME280;54892;47.488;19.026;2023-03-20T03:09:24;99947.81;;;8.95;52.84
68107;BME280;54892;47.488;19.026;2023-03-20T03:12:30;99953.03;;;8.90;52.90
68107;BME280;54892;47.488;19.026;2023-03-20T03:15:37;99955.34;;;8.87;52.97
68107;BME280;54892;47.488;19.026;2023-03-20T03:18:42;99958.66;;;8.99;52.33
68107;BME280;54892;47.488;19.026;2023-03-20T03:21:47;99955.72;;;8.95;52.54
68107;BME280;54892;47.488;19.026;2023-03-20T03:24:52;99959.94;;;8.96;52.64
68107;BME280;54892;47.488;19.026;2023-03-20T03:27:58;99967.28;;;8.94;52.80
68107;BME280;54892;47.488;19.026;2023-03-20T03:31:02;99968.59;;;8.92;53.09
68107;BME280;54892;47.488;19.026;2023-03-20T03:34:07;99970.00;;;8.99;53.00
68107;BME280;54892;47.488;19.026;2023-03-20T03:37:15;99963.44;;;8.80;53.92
68107;BME280;54892;47.488;19.026;2023-03-20T03:40:26;99972.28;;;8.74;54.46
68107;BME280;54892;47.488;19.026;2023-03-20T03:43:33;99973.13;;;8.57;54.92
68107;BME280;54892;47.488;19.026;2023-03-20T03:46:39;99971.00;;;8.54;55.05
68107;BME280;54892;47.488;19.026;2023-03-20T03:49:46;99963.56;;;8.51;55.26
68107;BME280;54892;47.488;19.026;2023-03-20T03:52:50;99979.66;;;8.55;55.11
68107;BME280;54892;47.488;19.026;2023-03-20T03:55:59;99979.44;;;8.56;54.97
68107;BME280;54892;47.488;19.026;2023-03-20T03:59:05;99976.81;;;8.56;54.81
68107;BME280;54892;47.488;19.026;2023-03-20T04:02:10;99986.53;;;8.56;54.72
68107;BME280;54892;47.488;19.026;2023-03-20T04:05:14;99987.06;;;8.58;54.49
68107;BME280;54892;47.488;19.026;2023-03-20T04:08:18;99989.16;;;8.56;54.68
68107;BME280;54892;47.488;19.026;2023-03-20T04:11:23;99988.28;;;8.50;54.92
68107;BME280;54892;47.488;19.026;2023-03-20T04:14:27;99992.41;;;8.46;54.79
68107;BME280;54892;47.488;19.026;2023-03-20T04:17:30;99999.72;;;8.44;55.03
68107;BME280;54892;47.488;19.026;2023-03-20T04:20:33;99995.19;;;8.39;55.09
68107;BME280;54892;47.488;19.026;2023-03-20T04:23:36;99996.53;;;8.42;55.11
68107;BME280;54892;47.488;19.026;2023-03-20T04:26:41;100005.31;;;8.47;54.98
68107;BME280;54892;47.488;19.026;2023-03-20T04:29:45;99996.22;;;8.38;55.09
68107;BME280;54892;47.488;19.026;2023-03-20T04:32:48;99999.09;;;8.36;55.16
68107;BME280;54892;47.488;19.026;2023-03-20T04:35:51;100002.22;;;8.33;55.27
68107;BME280;54892;47.488;19.026;2023-03-20T04:38:55;100005.78;;;8.27;55.52
68107;BME280;54892;47.488;19.026;2023-03-20T04:41:59;100001.66;;;8.14;55.78
68107;BME280;54892;47.488;19.026;2023-03-20T04:45:03;100003.56;;;8.19;55.57
68107;BME280;54892;47.488;19.026;2023-03-20T04:48:06;99994.00;;;8.13;55.75
68107;BME280;54892;47.488;19.026;2023-03-20T04:51:09;99995.59;;;8.14;55.76
68107;BME280;54892;47.488;19.026;2023-03-20T04:54:12;99991.53;;;8.06;55.81
68107;BME280;54892;47.488;19.026;2023-03-20T04:57:17;99994.00;;;8.13;55.48
68107;BME280;54892;47.488;19.026;2023-03-20T05:00:20;99994.56;;;8.15;55.42
68107;BME280;54892;47.488;19.026;2023-03-20T05:03:25;100005.00;;;8.10;55.32
68107;BME280;54892;47.488;19.026;2023-03-20T05:06:29;100010.34;;;8.15;55.12
68107;BME280;54892;47.488;19.026;2023-03-20T05:09:33;100007.53;;;8.21;55.06
68107;BME280;54892;47.488;19.026;2023-03-20T05:12:38;99999.81;;;8.15;55.42
68107;BME280;54892;47.488;19.026;2023-03-20T05:15:41;100005.53;;;8.12;55.61
68107;BME280;54892;47.488;19.026;2023-03-20T05:18:45;100011.47;;;8.19;55.34
68107;BME280;54892;47.488;19.026;2023-03-20T05:21:48;100010.09;;;8.16;55.49
68107;BME280;54892;47.488;19.026;2023-03-20T05:24:51;100019.72;;;8.11;55.69
68107;BME280;54892;47.488;19.026;2023-03-20T05:27:56;100021.41;;;8.17;55.42
68107;BME280;54892;47.488;19.026;2023-03-20T05:30:59;100024.75;;;8.29;54.91
68107;BME280;54892;47.488;19.026;2023-03-20T05:34:03;100031.22;;;8.38;54.66
68107;BME280;54892;47.488;19.026;2023-03-20T05:37:06;100028.19;;;8.47;54.31
68107;BME280;54892;47.488;19.026;2023-03-20T05:40:11;100029.69;;;8.43;54.63
68107;BME280;54892;47.488;19.026;2023-03-20T05:43:16;100032.53;;;8.53;54.60
68107;BME280;54892;47.488;19.026;2023-03-20T05:46:19;100030.37;;;8.50;54.57
68107;BME280;54892;47.488;19.026;2023-03-20T05:49:24;100033.16;;;8.60;54.52
68107;BME280;54892;47.488;19.026;2023-03-20T05:52:27;100023.50;;;8.66;54.35
68107;BME280;54892;47.488;19.026;2023-03-20T05:55:30;100036.16;;;8.69;54.34
68107;BME280;54892;47.488;19.026;2023-03-20T05:58:35;100028.06;;;8.71;54.12
68107;BME280;54892;47.488;19.026;2023-03-20T06:01:38;100035.44;;;8.74;53.91
68107;BME280;54892;47.488;19.026;2023-03-20T06:04:41;100036.03;;;8.98;53.18
68107;BME280;54892;47.488;19.026;2023-03-20T06:07:44;100039.31;;;9.05;53.07
68107;BME280;54892;47.488;19.026;2023-03-20T06:10:48;100052.84;;;9.36;52.27
68107;BME280;54892;47.488;19.026;2023-03-20T06:13:53;100052.09;;;9.63;51.23
68107;BME280;54892;47.488;19.026;2023-03-20T06:16:58;100042.16;;;9.98;49.84
68107;BME280;54892;47.488;19.026;2023-03-20T06:20:02;100052.44;;;10.27;48.80
68107;BME280;54892;47.488;19.026;2023-03-20T06:23:06;100054.00;;;10.55;48.30
68107;BME280;54892;47.488;19.026;2023-03-20T06:26:10;100058.72;;;10.53;48.06
68107;BME280;54892;47.488;19.026;2023-03-20T06:29:14;100053.38;;;10.80;47.27
68107;BME280;54892;47.488;19.026;2023-03-20T06:32:18;100050.03;;;10.95;46.23
68107;BME280;54892;47.488;19.026;2023-03-20T06:35:21;100050.34;;;11.09;45.98
68107;BME280;54892;47.488;19.026;2023-03-20T06:38:25;100053.38;;;11.39;45.68
68107;BME280;54892;47.488;19.026;2023-03-20T06:41:28;100047.47;;;12.00;44.64
68107;BME280;54892;47.488;19.026;2023-03-20T06:44:36;100060.44;;;12.43;43.18
68107;BME280;54892;47.488;19.026;2023-03-20T06:47:39;100059.34;;;12.81;42.18
68107;BME280;54892;47.488;19.026;2023-03-20T06:50:44;100064.28;;;13.18;41.22
68107;BME280;54892;47.488;19.026;2023-03-20T06:53:47;100057.06;;;13.45;40.11
68107;BME280;54892;47.488;19.026;2023-03-20T06:56:54;100061.81;;;13.93;39.31
68107;BME280;54892;47.488;19.026;2023-03-20T06:59:58;100060.56;;;14.54;37.69
68107;BME280;54892;47.488;19.026;2023-03-20T07:03:02;100061.72;;;14.72;37.13
68107;BME280;54892;47.488;19.026;2023-03-20T07:06:05;100061.97;;;14.41;37.20
68107;BME280;54892;47.488;19.026;2023-03-20T07:09:09;100063.38;;;15.17;36.16
68107;BME280;54892;47.488;19.026;2023-03-20T07:12:12;100062.59;;;15.60;35.08
68107;BME280;54892;47.488;19.026;2023-03-20T07:15:18;100063.16;;;15.76;34.25
68107;BME280;54892;47.488;19.026;2023-03-20T07:18:21;100058.63;;;15.76;34.23
68107;BME280;54892;47.488;19.026;2023-03-20T07:21:25;100067.53;;;16.57;33.01
68107;BME280;54892;47.488;19.026;2023-03-20T07:24:28;100066.88;;;17.21;32.63
68107;BME280;54892;47.488;19.026;2023-03-20T07:27:32;100067.56;;;17.27;31.74
68107;BME280;54892;47.488;19.026;2023-03-20T07:30:38;100064.69;;;17.23;31.24
68107;BME280;54892;47.488;19.026;2023-03-20T07:33:41;100070.63;;;17.06;31.39
68107;BME280;54892;47.488;19.026;2023-03-20T07:36:45;100060.56;;;17.03;31.27
68107;BME280;54892;47.488;19.026;2023-03-20T07:39:48;100060.38;;;16.52;31.95
68107;BME280;54892;47.488;19.026;2023-03-20T07:42:52;100061.44;;;17.40;30.66
68107;BME280;54892;47.488;19.026;2023-03-20T07:45:56;100063.28;;;17.54;30.30
68107;BME280;54892;47.488;19.026;2023-03-20T07:48:59;100069.53;;;17.35;30.34
68107;BME280;54892;47.488;19.026;2023-03-20T07:52:04;100066.28;;;17.10;30.82
68107;BME280;54892;47.488;19.026;2023-03-20T07:55:07;100076.66;;;16.98;30.82
68107;BME280;54892;47.488;19.026;2023-03-20T07:58:10;100069.38;;;17.03;31.02
68107;BME280;54892;47.488;19.026;2023-03-20T08:01:15;100071.66;;;16.49;31.59
68107;BME280;54892;47.488;19.026;2023-03-20T08:04:19;100071.03;;;16.38;32.09
68107;BME280;54892;47.488;19.026;2023-03-20T08:07:23;100076.34;;;16.38;32.38
68107;BME280;54892;47.488;19.026;2023-03-20T08:10:26;100082.22;;;16.02;32.64
68107;BME280;54892;47.488;19.026;2023-03-20T08:13:30;100076.81;;;15.69;32.93
68107;BME280;54892;47.488;19.026;2023-03-20T08:16:35;100078.09;;;15.52;33.47
68107;BME280;54892;47.488;19.026;2023-03-20T08:19:38;100080.91;;;15.61;32.57
68107;BME280;54892;47.488;19.026;2023-03-20T08:22:41;100081.97;;;15.17;33.32
68107;BME280;54892;47.488;19.026;2023-03-20T08:25:46;100082.31;;;14.86;34.52
68107;BME280;54892;47.488;19.026;2023-03-20T08:28:49;100083.53;;;14.99;33.88
68107;BME280;54892;47.488;19.026;2023-03-20T08:31:54;100088.59;;;14.95;34.34
68107;BME280;54892;47.488;19.026;2023-03-20T08:34:58;100078.97;;;14.99;34.82
68107;BME280;54892;47.488;19.026;2023-03-20T08:38:01;100084.25;;;15.29;34.63
68107;BME280;54892;47.488;19.026;2023-03-20T08:41:05;100088.81;;;15.47;34.43
68107;BME280;54892;47.488;19.026;2023-03-20T08:44:08;100084.84;;;15.45;34.45
68107;BME280;54892;47.488;19.026;2023-03-20T08:47:12;100094.84;;;15.53;35.00
68107;BME280;54892;47.488;19.026;2023-03-20T08:50:16;100092.38;;;15.37;34.53
68107;BME280;54892;47.488;19.026;2023-03-20T08:53:20;100096.75;;;15.28;34.99
68107;BME280;54892;47.488;19.026;2023-03-20T08:56:23;100101.09;;;15.19;34.72
68107;BME280;54892;47.488;19.026;2023-03-20T08:59:26;100091.53;;;15.18;34.91
68107;BME280;54892;47.488;19.026;2023-03-20T09:02:31;100105.19;;;15.35;34.52
68107;BME280;54892;47.488;19.026;2023-03-20T09:05:35;100104.28;;;15.21;34.69
68107;BME280;54892;47.488;19.026;2023-03-20T09:08:39;100098.31;;;14.81;35.24
68107;BME280;54892;47.488;19.026;2023-03-20T09:11:42;100097.59;;;14.99;34.91
68107;BME280;54892;47.488;19.026;2023-03-20T09:14:45;100104.06;;;15.17;34.12
68107;BME280;54892;47.488;19.026;2023-03-20T09:17:50;100105.91;;;15.17;34.32
68107;BME280;54892;47.488;19.026;2023-03-20T09:20:53;100101.87;;;15.19;34.28
68107;BME280;54892;47.488;19.026;2023-03-20T09:23:57;100104.00;;;14.69;34.66
68107;BME280;54892;47.488;19.026;2023-03-20T09:27:01;100105.13;;;14.92;34.53
68107;BME280;54892;47.488;19.026;2023-03-20T09:30:04;100099.91;;;15.06;34.60
68107;BME280;54892;47.488;19.026;2023-03-20T09:33:10;100103.09;;;15.08;34.50
68107;BME280;54892;47.488;19.026;2023-03-20T09:36:15;100099.53;;;15.18;34.32
68107;BME280;54892;47.488;19.026;2023-03-20T09:39:18;100100.31;;;14.94;34.41
68107;BME280;54892;47.488;19.026;2023-03-20T09:42:24;100096.09;;;15.17;34.41
68107;BME280;54892;47.488;19.026;2023-03-20T09:45:36;100095.75;;;15.24;34.15
68107;BME280;54892;47.488;19.026;2023-03-20T09:48:45;100094.72;;;15.20;34.29
68107;BME280;54892;47.488;19.026;2023-03-20T09:51:54;100088.31;;;15.21;34.37
68107;BME280;54892;47.488;19.026;2023-03-20T09:55:00;100093.50;;;15.31;34.67
68107;BME280;54892;47.488;19.026;2023-03-20T09:58:06;100099.50;;;15.42;34.83
68107;BME280;54892;47.488;19.026;2023-03-20T10:01:12;100096.25;;;15.70;34.41
68107;BME280;54892;47.488;19.026;2023-03-20T10:04:19;100091.84;;;15.79;35.33
68107;BME280;54892;47.488;19.026;2023-03-20T10:07:22;100096.16;;;15.75;34.96
68107;BME280;54892;47.488;19.026;2023-03-20T10:10:29;100088.63;;;15.63;35.24
68107;BME280;54892;47.488;19.026;2023-03-20T10:13:38;100095.16;;;15.71;35.46
68107;BME280;54892;47.488;19.026;2023-03-20T10:16:51;100096.09;;;15.80;35.92
68107;BME280;54892;47.488;19.026;2023-03-20T10:19:57;100095.50;;;15.88;35.71
68107;BME280;54892;47.488;19.026;2023-03-20T10:23:02;100091.44;;;16.10;35.15
68107;BME280;54892;47.488;19.026;2023-03-20T10:26:08;100096.47;;;15.92;35.93
68107;BME280;54892;47.488;19.026;2023-03-20T10:29:14;100094.81;;;15.96;35.66
68107;BME280;54892;47.488;19.026;2023-03-20T10:32:19;100091.59;;;16.00;35.71
68107;BME280;54892;47.488;19.026;2023-03-20T10:35:30;100083.41;;;15.96;35.54
68107;BME280;54892;47.488;19.026;2023-03-20T10:38:38;100085.47;;;16.18;35.07
68107;BME280;54892;47.488;19.026;2023-03-20T10:41:46;100081.56;;;16.29;35.36
68107;BME280;54892;47.488;19.026;2023-03-20T10:44:53;100084.25;;;16.43;34.89
68107;BME280;54892;47.488;19.026;2023-03-20T10:47:59;100075.53;;;16.38;35.37
68107;BME280;54892;47.488;19.026;2023-03-20T10:51:05;100080.53;;;16.58;35.17
68107;BME280;54892;47.488;19.026;2023-03-20T10:54:20;100075.03;;;16.83;34.35
68107;BME280;54892;47.488;19.026;2023-03-20T10:57:25;100072.66;;;16.67;35.42
68107;BME280;54892;47.488;19.026;2023-03-20T11:00:30;100075.47;;;16.43;35.10
68107;BME280;54892;47.488;19.026;2023-03-20T11:03:35;100069.56;;;16.46;35.34
68107;BME280;54892;47.488;19.026;2023-03-20T11:06:42;100059.22;;;16.58;34.84
68107;BME280;54892;47.488;19.026;2023-03-20T11:09:50;100067.00;;;16.55;35.74
68107;BME280;54892;47.488;19.026;2023-03-20T11:13:15;100055.47;;;16.59;34.73
68107;BME280;54892;47.488;19.026;2023-03-20T11:16:28;100050.53;;;16.67;34.83
68107;BME280;54892;47.488;19.026;2023-03-20T11:19:32;100048.28;;;16.74;34.77
68107;BME280;54892;47.488;19.026;2023-03-20T11:22:37;100042.38;;;16.77;34.67
68107;BME280;54892;47.488;19.026;2023-03-20T11:25:45;100049.38;;;16.87;34.45
68107;BME280;54892;47.488;19.026;2023-03-20T11:28:50;100031.00;;;17.13;34.69
68107;BME280;54892;47.488;19.026;2023-03-20T11:31:54;100037.37;;;17.03;35.69
68107;BME280;54892;47.488;19.026;2023-03-20T11:35:09;100034.66;;;16.62;34.98
68107;BME280;54892;47.488;19.026;2023-03-20T11:38:14;100023.31;;;16.84;34.64
68107;BME280;54892;47.488;19.026;2023-03-20T11:41:21;100025.28;;;16.92;34.97
68107;BME280;54892;47.488;19.026;2023-03-20T11:44:25;100027.37;;;16.95;34.56
68107;BME280;54892;47.488;19.026;2023-03-20T11:47:30;100022.72;;;17.01;34.89
68107;BME280;54892;47.488;19.026;2023-03-20T11:50:35;100027.25;;;17.14;35.07
68107;BME280;54892;47.488;19.026;2023-03-20T11:53:40;100027.78;;;17.02;34.44
68107;BME280;54892;47.488;19.026;2023-03-20T11:56:50;100026.09;;;17.07;34.58
68107;BME280;54892;47.488;19.026;2023-03-20T11:59:54;100023.72;;;17.19;34.69
68107;BME280;54892;47.488;19.026;2023-03-20T12:02:57;100016.59;;;17.14;34.71
68107;BME280;54892;47.488;19.026;2023-03-20T12:06:01;100018.25;;;17.24;34.62
68107;BME280;54892;47.488;19.026;2023-03-20T12:09:06;100020.66;;;17.26;33.99
68107;BME280;54892;47.488;19.026;2023-03-20T12:12:15;100014.09;;;17.32;33.97
68107;BME280;54892;47.488;19.026;2023-03-20T12:15:23;100013.13;;;17.28;33.74
68107;BME280;54892;47.488;19.026;2023-03-20T12:18:28;100010.75;;;17.26;34.03
68107;BME280;54892;47.488;19.026;2023-03-20T12:21:34;100009.25;;;17.34;34.03
68107;BME280;54892;47.488;19.026;2023-03-20T12:24:44;100004.09;;;17.38;34.49
68107;BME280;54892;47.488;19.026;2023-03-20T12:27:52;100010.25;;;17.38;34.01
68107;BME280;54892;47.488;19.026;2023-03-20T12:30:58;100009.25;;;17.34;34.11
68107;BME280;54892;47.488;19.026;2023-03-20T12:34:06;100005.19;;;17.37;33.90
68107;BME280;54892;47.488;19.026;2023-03-20T12:37:12;100004.91;;;17.24;34.27
68107;BME280;54892;47.488;19.026;2023-03-20T12:40:20;100009.47;;;17.24;34.38
68107;BME280;54892;47.488;19.026;2023-03-20T12:43:29;100011.47;;;17.18;34.33
68107;BME280;54892;47.488;19.026;2023-03-20T12:46:37;100002.00;;;17.12;34.41
68107;BME280;54892;47.488;19.026;2023-03-20T12:49:45;100003.84;;;17.25;34.73
68107;BME280;54892;47.488;19.026;2023-03-20T12:52:54;99999.31;;;17.12;34.84
68107;BME280;54892;47.488;19.026;2023-03-20T12:56:05;99997.81;;;17.19;34.50
68107;BME280;54892;47.488;19.026;2023-03-20T12:59:14;99997.16;;;17.14;34.82
68107;BME280;54892;47.488;19.026;2023-03-20T13:02:27;99984.22;;;17.07;34.83
68107;BME280;54892;47.488;19.026;2023-03-20T13:05:34;99979.78;;;17.02;34.95
68107;BME280;54892;47.488;19.026;2023-03-20T13:08:42;99980.97;;;17.10;35.29
68107;BME280;54892;47.488;19.026;2023-03-20T13:11:55;99982.31;;;17.08;35.30
68107;BME280;54892;47.488;19.026;2023-03-20T13:15:01;99970.16;;;17.15;35.29
68107;BME280;54892;47.488;19.026;2023-03-20T13:18:10;99963.72;;;17.30;35.58
68107;BME280;54892;47.488;19.026;2023-03-20T13:21:16;99954.97;;;17.16;35.16
68107;BME280;54892;47.488;19.026;2023-03-20T13:24:22;99961.66;;;17.13;35.34
68107;BME280;54892;47.488;19.026;2023-03-20T13:27:33;99962.00;;;16.98;35.52
68107;BME280;54892;47.488;19.026;2023-03-20T13:30:40;99964.47;;;17.08;35.64
68107;BME280;54892;47.488;19.026;2023-03-20T13:33:46;99962.47;;;17.14;35.70
68107;BME280;54892;47.488;19.026;2023-03-20T13:36:54;99956.91;;;17.24;35.83
68107;BME280;54892;47.488;19.026;2023-03-20T13:40:17;99955.22;;;17.28;35.52
68107;BME280;54892;47.488;19.026;2023-03-20T13:43:25;99955.81;;;17.25;35.60
68107;BME280;54892;47.488;19.026;2023-03-20T13:46:32;99952.00;;;17.17;35.91
68107;BME280;54892;47.488;19.026;2023-03-20T13:49:37;99943.31;;;17.12;36.16
68107;BME280;54892;47.488;19.026;2023-03-20T13:52:41;99948.06;;;17.01;36.47
68107;BME280;54892;47.488;19.026;2023-03-20T13:55:50;99947.16;;;17.05;36.23
68107;BME280;54892;47.488;19.026;2023-03-20T13:59:05;99945.81;;;17.08;36.11
68107;BME280;54892;47.488;19.026;2023-03-20T14:02:20;99937.41;;;17.01;36.18
68107;BME280;54892;47.488;19.026;2023-03-20T14:05:26;99953.22;;;16.97;36.63
68107;BME280;54892;47.488;19.026;2023-03-20T14:08:31;99952.81;;;17.04;36.88
68107;BME280;54892;47.488;19.026;2023-03-20T14:11:36;99957.25;;;17.09;36.78
68107;BME280;54892;47.488;19.026;2023-03-20T14:14:41;99951.00;;;17.13;36.87
68107;BME280;54892;47.488;19.026;2023-03-20T14:17:45;99948.97;;;17.10;36.95
68107;BME280;54892;47.488;19.026;2023-03-20T14:20:50;99943.62;;;17.10;37.12
68107;BME280;54892;47.488;19.026;2023-03-20T14:23:56;99948.63;;;17.26;37.43
68107;BME280;54892;47.488;19.026;2023-03-20T14:27:02;99942.41;;;17.16;37.56
68107;BME280;54892;47.488;19.026;2023-03-20T14:33:58;99934.00;;;17.69;37.29
68107;BME280;54892;47.488;19.026;2023-03-20T14:37:02;99934.00;;;17.69;37.29
68107;BME280;54892;47.488;19.026;2023-03-20T14:40:12;99937.41;;;17.01;38.35
68107;BME280;54892;47.488;19.026;2023-03-20T14:43:17;99929.41;;;17.01;38.45
68107;BME280;54892;47.488;19.026;2023-03-20T14:46:23;99936.44;;;16.97;38.83
68107;BME280;54892;47.488;19.026;2023-03-20T14:49:45;99950.25;;;16.99;38.91
68107;BME280;54892;47.488;19.026;2023-03-20T14:52:54;99934.16;;;17.04;38.76
68107;BME280;54892;47.488;19.026;2023-03-20T14:56:05;99933.91;;;17.14;38.80
68107;BME280;54892;47.488;19.026;2023-03-20T14:59:09;99931.22;;;17.28;38.91
68107;BME280;54892;47.488;19.026;2023-03-20T15:02:21;99926.97;;;17.27;39.02
68107;BME280;54892;47.488;19.026;2023-03-20T15:05:29;99930.91;;;17.30;38.98
68107;BME280;54892;47.488;19.026;2023-03-20T15:08:33;99926.38;;;17.30;38.93
68107;BME280;54892;47.488;19.026;2023-03-20T15:11:37;99924.13;;;17.24;38.98
68107;BME280;54892;47.488;19.026;2023-03-20T15:14:42;99922.44;;;17.28;39.46
68107;BME280;54892;47.488;19.026;2023-03-20T15:17:47;99923.25;;;17.14;39.62
68107;BME280;54892;47.488;19.026;2023-03-20T15:20:53;99923.06;;;17.11;39.58
68107;BME280;54892;47.488;19.026;2023-03-20T15:23:58;99920.03;;;17.03;39.96
68107;BME280;54892;47.488;19.026;2023-03-20T15:27:02;99916.69;;;16.98;39.87
68107;BME280;54892;47.488;19.026;2023-03-20T15:30:08;99918.94;;;16.90;40.28
68107;BME280;54892;47.488;19.026;2023-03-20T15:33:15;99925.97;;;17.00;40.26
68107;BME280;54892;47.488;19.026;2023-03-20T15:36:22;99920.44;;;16.83;40.35
68107;BME280;54892;47.488;19.026;2023-03-20T15:39:27;99926.38;;;16.80;40.65
68107;BME280;54892;47.488;19.026;2023-03-20T15:42:30;99929.62;;;16.77;40.70
68107;BME280;54892;47.488;19.026;2023-03-20T15:45:34;99923.50;;;16.76;41.04
68107;BME280;54892;47.488;19.026;2023-03-20T15:48:39;99919.84;;;16.72;41.08
68107;BME280;54892;47.488;19.026;2023-03-20T15:51:44;99919.75;;;16.77;41.14
68107;BME280;54892;47.488;19.026;2023-03-20T15:54:48;99918.19;;;16.76;41.47
68107;BME280;54892;47.488;19.026;2023-03-20T15:57:52;99910.94;;;16.90;41.07
68107;BME280;54892;47.488;19.026;2023-03-20T16:00:58;99910.56;;;16.83;41.41
68107;BME280;54892;47.488;19.026;2023-03-20T16:04:01;99909.78;;;16.83;41.60
68107;BME280;54892;47.488;19.026;2023-03-20T16:07:17;99918.69;;;16.78;41.87
68107;BME280;54892;47.488;19.026;2023-03-20T16:10:22;99911.44;;;16.79;42.02
68107;BME280;54892;47.488;19.026;2023-03-20T16:13:27;99926.25;;;16.85;42.06
68107;BME280;54892;47.488;19.026;2023-03-20T16:16:33;99923.50;;;16.76;42.60
68107;BME280;54892;47.488;19.026;2023-03-20T16:19:38;99926.19;;;16.76;42.48
68107;BME280;54892;47.488;19.026;2023-03-20T16:22:43;99941.00;;;16.68;42.58
68107;BME280;54892;47.488;19.026;2023-03-20T16:25:46;99935.56;;;16.59;42.89